Time;durP1;ratioP1;P1;durP2;ratioP2;P2;SDS_P1;SDS_P2;PMS_P1;PMS_P2;Temp;Humidity;BMP_temperature;BMP_pressure;BME280_temperature;BME280_humidity;BME280_pressure;Samples;Min_cycle;Max_cycle;Signal;HPM_P1;HPM_P2
2022/02/26 00:01:09;;;;;;;2.00;1.90;;;1.30;99.90;;;;;;5039404;28;20041;-38
2022/02/26 00:03:35;;;;;;;4.82;2.00;;;1.40;99.90;;;;;;5038843;28;20025;-40
2022/02/26 00:06:01;;;;;;;2.55;1.83;;;1.40;99.90;;;;;;5034027;28;20040;-40
2022/02/26 00:08:26;;;;;;;4.93;2.45;;;1.40;99.90;;;;;;5038010;28;20116;-38
2022/02/26 00:10:52;;;;;;;4.53;2.63;;;1.40;99.90;;;;;;5038459;28;20032;-37
2022/02/26 00:13:18;;;;;;;2.60;2.40;;;1.40;99.90;;;;;;5034679;28;20051;-38
2022/02/26 00:15:44;;;;;;;5.13;2.33;;;1.40;99.90;;;;;;5033966;28;20040;-39
2022/02/26 00:18:09;;;;;;;8.50;2.17;;;1.40;99.90;;;;;;5035041;28;20591;-40
2022/02/26 00:20:35;;;;;;;4.43;2.33;;;1.40;99.90;;;;;;5035628;28;20159;-38
2022/02/26 00:23:00;;;;;;;5.93;2.22;;;1.40;99.90;;;;;;5037937;28;20104;-37
2022/02/26 00:25:26;;;;;;;2.63;2.03;;;1.40;99.90;;;;;;5037114;28;20032;-38
2022/02/26 00:27:52;;;;;;;1.77;1.67;;;1.40;99.90;;;;;;5036153;28;20053;-38
2022/02/26 00:30:17;;;;;;;5.00;2.53;;;1.40;99.90;;;;;;5036980;28;20033;-39
2022/02/26 00:32:43;;;;;;;4.05;2.22;;;1.40;99.90;;;;;;5038580;28;20630;-39
2022/02/26 00:35:09;;;;;;;2.25;2.05;;;1.50;99.90;;;;;;5038066;28;20025;-36
2022/02/26 00:37:35;;;;;;;2.28;2.08;;;1.40;99.90;;;;;;5037718;28;20103;-39
2022/02/26 00:40:00;;;;;;;2.10;1.88;;;1.40;99.90;;;;;;5036342;28;20037;-40
2022/02/26 00:42:26;;;;;;;4.13;2.15;;;1.40;99.90;;;;;;5036336;28;20031;-40
2022/02/26 00:44:52;;;;;;;4.18;1.92;;;1.50;99.90;;;;;;5043240;28;20032;-40
2022/02/26 00:47:18;;;;;;;3.42;2.55;;;1.50;99.90;;;;;;5035542;28;20070;-36
2022/02/26 00:49:52;;;;;;;3.75;2.15;;;1.50;99.90;;;;;;5036516;28;20025;-40
2022/02/26 00:52:28;;;;;;;6.85;2.60;;;1.50;99.90;;;;;;5036836;28;20112;-37
2022/02/26 00:54:54;;;;;;;2.28;1.88;;;1.50;99.90;;;;;;5037970;28;20045;-36
2022/02/26 00:57:20;;;;;;;3.30;2.38;;;1.50;99.90;;;;;;5038584;28;20078;-38
2022/02/26 00:59:46;;;;;;;4.57;2.08;;;1.50;99.90;;;;;;5036763;28;20144;-39
2022/02/26 01:02:11;;;;;;;7.03;2.40;;;1.60;99.90;;;;;;5039658;28;20513;-40
2022/02/26 01:04:39;;;;;;;2.72;2.22;;;1.60;99.90;;;;;;5039064;28;20082;-38
2022/02/26 01:07:05;;;;;;;5.80;2.30;;;1.60;99.90;;;;;;5043519;28;20531;-39
2022/02/26 01:09:32;;;;;;;4.75;2.50;;;1.70;99.90;;;;;;5039099;28;20425;-39
2022/02/26 01:11:58;;;;;;;3.55;1.90;;;1.70;99.90;;;;;;5036823;28;20496;-39
2022/02/26 01:14:24;;;;;;;3.95;1.90;;;1.70;99.90;;;;;;5040659;28;20029;-39
2022/02/26 01:16:50;;;;;;;3.05;2.20;;;1.70;99.90;;;;;;5041396;28;20033;-38
2022/02/26 01:19:16;;;;;;;3.63;2.30;;;1.70;99.90;;;;;;5035416;28;20417;-39
2022/02/26 01:21:43;;;;;;;3.38;2.42;;;1.70;99.90;;;;;;5040783;28;20137;-39
2022/02/26 01:24:10;;;;;;;3.72;2.38;;;1.70;99.90;;;;;;5036551;28;20030;-39
2022/02/26 01:26:36;;;;;;;4.05;2.47;;;1.70;99.90;;;;;;5034214;28;20049;-39
2022/02/26 01:29:03;;;;;;;3.95;2.20;;;1.70;99.90;;;;;;5034281;28;20553;-39
2022/02/26 01:31:29;;;;;;;6.68;2.80;;;1.80;99.90;;;;;;5032929;28;20169;-38
2022/02/26 01:33:55;;;;;;;2.85;2.30;;;1.80;99.90;;;;;;5035243;28;20032;-38
2022/02/26 01:36:21;;;;;;;2.72;2.20;;;1.70;99.90;;;;;;5039411;28;20024;-37
2022/02/26 01:38:47;;;;;;;2.35;2.15;;;1.70;99.90;;;;;;5032624;28;20106;-39
2022/02/26 01:41:13;;;;;;;5.00;3.25;;;1.70;99.90;;;;;;5032956;28;20037;-38
2022/02/26 01:43:39;;;;;;;8.80;3.13;;;1.70;99.90;;;;;;5032928;28;20044;-40
2022/02/26 01:46:07;;;;;;;5.03;2.63;;;1.70;99.90;;;;;;5034412;28;20670;-39
2022/02/26 01:48:36;;;;;;;6.13;2.53;;;1.70;99.90;;;;;;5041834;28;20020;-39
2022/02/26 01:51:03;;;;;;;4.45;2.25;;;1.70;99.90;;;;;;5031009;28;20068;-39
2022/02/26 01:53:29;;;;;;;2.33;2.20;;;1.70;99.90;;;;;;5035966;28;20518;-37
2022/02/26 01:55:54;;;;;;;4.10;2.97;;;1.60;99.90;;;;;;5038491;28;20029;-38
2022/02/26 01:58:20;;;;;;;2.92;2.08;;;1.70;99.90;;;;;;5040131;28;20061;-38
2022/02/26 02:00:46;;;;;;;3.38;3.08;;;1.70;99.90;;;;;;5036676;28;20055;-39
2022/02/26 02:03:12;;;;;;;6.18;3.25;;;1.70;99.90;;;;;;5035755;28;20086;-38
2022/02/26 02:05:38;;;;;;;4.28;2.40;;;1.70;99.90;;;;;;5031843;28;20037;-37
2022/02/26 02:08:04;;;;;;;4.55;2.90;;;1.70;99.90;;;;;;5038048;28;20025;-38
2022/02/26 02:10:30;;;;;;;1.80;1.73;;;1.70;99.90;;;;;;5034730;28;20318;-40
2022/02/26 02:12:57;;;;;;;4.70;2.28;;;1.70;99.90;;;;;;5039621;28;20025;-36
2022/02/26 02:15:33;;;;;;;3.30;2.60;;;1.70;99.90;;;;;;5040356;28;20039;-39
2022/02/26 02:17:59;;;;;;;4.38;2.72;;;1.70;99.90;;;;;;5037704;28;20025;-36
2022/02/26 02:20:25;;;;;;;4.97;2.80;;;1.70;99.90;;;;;;5034841;28;20036;-38
2022/02/26 02:22:51;;;;;;;5.65;2.13;;;1.70;99.90;;;;;;5036247;28;20029;-39
2022/02/26 02:25:18;;;;;;;4.10;2.42;;;1.70;99.90;;;;;;5041783;28;20541;-39
2022/02/26 02:27:43;;;;;;;5.32;2.72;;;1.70;99.90;;;;;;5039784;28;20064;-37
2022/02/26 02:30:10;;;;;;;6.95;2.78;;;1.70;99.90;;;;;;5037750;28;20025;-39
2022/02/26 02:32:38;;;;;;;5.13;2.95;;;1.70;99.90;;;;;;5038744;28;20065;-40
2022/02/26 02:35:05;;;;;;;8.55;3.20;;;1.80;99.90;;;;;;5037078;28;20037;-39
2022/02/26 02:37:30;;;;;;;3.05;2.13;;;1.80;99.90;;;;;;5035544;28;20033;-38
2022/02/26 02:39:56;;;;;;;2.97;2.65;;;1.80;99.90;;;;;;5038358;28;20033;-38
2022/02/26 02:42:22;;;;;;;3.35;2.30;;;1.80;99.90;;;;;;5036496;28;20111;-39
2022/02/26 02:44:47;;;;;;;2.63;2.35;;;1.80;99.90;;;;;;5040904;28;20036;-39
2022/02/26 02:47:13;;;;;;;4.80;2.53;;;1.80;99.90;;;;;;5042013;28;20035;-39
2022/02/26 02:49:38;;;;;;;4.38;2.53;;;1.80;99.90;;;;;;5037344;28;20025;-40
2022/02/26 02:52:04;;;;;;;4.30;2.60;;;1.90;99.90;;;;;;5043361;28;20029;-38
2022/02/26 02:54:30;;;;;;;2.17;2.00;;;1.90;99.90;;;;;;5038383;28;20036;-38
2022/02/26 02:56:56;;;;;;;4.85;2.60;;;1.90;99.90;;;;;;5040724;28;20041;-39
2022/02/26 02:59:21;;;;;;;3.67;2.45;;;1.80;99.90;;;;;;5041872;28;20029;-38
2022/02/26 03:01:47;;;;;;;2.88;2.08;;;1.80;99.90;;;;;;5034603;28;20836;-37
2022/02/26 03:04:12;;;;;;;3.25;2.80;;;1.90;99.90;;;;;;5041403;28;20037;-39
2022/02/26 03:06:38;;;;;;;2.78;2.38;;;1.90;99.90;;;;;;5045617;28;20104;-35
2022/02/26 03:09:04;;;;;;;3.35;3.05;;;1.90;99.90;;;;;;5042306;28;20046;-39
2022/02/26 03:11:29;;;;;;;3.90;2.60;;;1.90;99.90;;;;;;5035008;28;20032;-39
2022/02/26 03:13:55;;;;;;;3.63;2.20;;;1.90;99.90;;;;;;5038182;28;20063;-38
2022/02/26 03:16:21;;;;;;;5.28;2.47;;;1.90;99.90;;;;;;5035763;28;20056;-39
2022/02/26 03:18:46;;;;;;;4.20;3.17;;;1.80;99.90;;;;;;5037386;28;20040;-39
2022/02/26 03:21:12;;;;;;;7.55;3.28;;;1.80;99.90;;;;;;5036646;28;20756;-37
2022/02/26 03:23:37;;;;;;;2.60;2.40;;;1.70;99.90;;;;;;5033181;28;20029;-38
2022/02/26 03:26:03;;;;;;;5.18;2.20;;;1.80;99.90;;;;;;5039519;28;20032;-39
2022/02/26 03:28:29;;;;;;;4.30;2.70;;;1.80;99.90;;;;;;5033891;28;20048;-36
2022/02/26 03:30:55;;;;;;;4.03;2.72;;;1.80;99.90;;;;;;5039559;28;20513;-39
2022/02/26 03:33:21;;;;;;;6.30;2.92;;;1.80;99.90;;;;;;5038095;28;20025;-39
2022/02/26 03:35:46;;;;;;;6.07;2.55;;;1.90;99.90;;;;;;5036092;28;22102;-39
2022/02/26 03:38:12;;;;;;;5.60;3.17;;;1.90;99.90;;;;;;5044348;28;20036;-39
2022/02/26 03:40:39;;;;;;;3.58;2.45;;;1.90;99.90;;;;;;5035554;28;20079;-38
2022/02/26 03:43:04;;;;;;;2.90;2.47;;;2.00;99.90;;;;;;5038206;28;20041;-39
2022/02/26 03:45:30;;;;;;;6.30;2.85;;;2.00;99.90;;;;;;5041009;28;20032;-39
2022/02/26 03:47:56;;;;;;;5.68;2.83;;;2.00;99.90;;;;;;5038092;28;20405;-39
2022/02/26 03:50:22;;;;;;;3.10;2.80;;;2.00;99.90;;;;;;5041648;28;20025;-38
2022/02/26 03:52:47;;;;;;;3.33;2.60;;;2.00;99.90;;;;;;5038867;28;20118;-39
2022/02/26 03:55:13;;;;;;;2.63;2.42;;;1.90;99.90;;;;;;5041573;28;20044;-37
2022/02/26 03:57:39;;;;;;;6.05;2.88;;;1.90;99.90;;;;;;5043648;28;20037;-39
2022/02/26 04:00:06;;;;;;;4.03;2.67;;;1.90;99.90;;;;;;5039562;28;20021;-36
2022/02/26 04:02:34;;;;;;;13.18;3.47;;;1.90;99.90;;;;;;5033319;28;20040;-39
2022/02/26 04:05:00;;;;;;;5.82;3.28;;;2.00;99.90;;;;;;5040164;28;20039;-39
2022/02/26 04:07:25;;;;;;;3.40;2.88;;;1.90;99.90;;;;;;5038738;28;20436;-37
2022/02/26 04:09:51;;;;;;;9.57;3.38;;;1.90;99.90;;;;;;5036431;28;20026;-39
2022/02/26 04:12:17;;;;;;;5.88;3.22;;;2.00;99.90;;;;;;5034302;28;20537;-39
2022/02/26 04:14:43;;;;;;;4.70;2.75;;;2.10;99.90;;;;;;5035462;28;20028;-39
2022/02/26 04:17:09;;;;;;;7.40;3.28;;;2.10;99.90;;;;;;5039125;28;20028;-36
2022/02/26 04:19:35;;;;;;;4.50;3.03;;;2.00;99.90;;;;;;5033120;28;20043;-39
2022/02/26 04:22:01;;;;;;;5.50;2.63;;;2.10;99.90;;;;;;5034400;28;20029;-38
2022/02/26 04:24:26;;;;;;;7.65;3.83;;;2.00;99.90;;;;;;5036904;28;20040;-36
2022/02/26 04:26:52;;;;;;;3.97;3.40;;;2.00;99.90;;;;;;5038308;28;20045;-39
2022/02/26 04:29:18;;;;;;;5.32;3.60;;;2.00;99.90;;;;;;5036633;28;20025;-38
2022/02/26 04:31:43;;;;;;;3.28;2.97;;;2.00;99.90;;;;;;5054208;28;20540;-40
2022/02/26 04:34:09;;;;;;;10.73;4.18;;;2.00;99.90;;;;;;5038607;28;20040;-39
2022/02/26 04:36:35;;;;;;;4.53;3.42;;;1.90;99.90;;;;;;5039901;28;20869;-39
2022/02/26 04:39:01;;;;;;;8.57;4.03;;;1.90;99.90;;;;;;5041383;28;20032;-39
2022/02/26 04:41:26;;;;;;;7.97;3.65;;;1.90;99.90;;;;;;5035860;28;20041;-38
2022/02/26 04:43:52;;;;;;;7.00;3.38;;;1.90;99.90;;;;;;5032839;28;21666;-36
2022/02/26 04:46:17;;;;;;;3.83;3.45;;;1.90;99.90;;;;;;5038425;28;20028;-39
2022/02/26 04:48:44;;;;;;;7.35;4.28;;;1.80;99.90;;;;;;5037273;28;20025;-35
2022/02/26 04:51:09;;;;;;;6.55;4.03;;;1.80;99.90;;;;;;5035392;28;20041;-37
2022/02/26 04:53:36;;;;;;;5.78;3.88;;;1.80;99.90;;;;;;5028449;28;20441;-39
2022/02/26 04:56:02;;;;;;;9.25;3.90;;;1.80;99.90;;;;;;5032488;28;20100;-39
2022/02/26 04:58:28;;;;;;;4.30;3.60;;;1.90;99.90;;;;;;5038160;28;20091;-39
2022/02/26 05:00:54;;;;;;;7.90;3.90;;;1.90;99.90;;;;;;5033819;28;20045;-37
2022/02/26 05:03:19;;;;;;;6.65;3.83;;;1.80;99.90;;;;;;5032003;28;20032;-38
2022/02/26 05:05:45;;;;;;;5.18;3.60;;;1.80;99.90;;;;;;5038459;28;20044;-39
2022/02/26 05:08:10;;;;;;;6.18;3.78;;;1.80;99.90;;;;;;5033307;28;20032;-39
2022/02/26 05:10:37;;;;;;;4.28;3.60;;;1.90;99.90;;;;;;5037567;28;20033;-39
2022/02/26 05:13:03;;;;;;;8.30;4.38;;;1.80;99.90;;;;;;5033331;28;20451;-38
2022/02/26 05:15:29;;;;;;;7.70;4.00;;;1.80;99.90;;;;;;5039818;28;20032;-35
2022/02/26 05:17:54;;;;;;;6.78;4.13;;;1.90;99.90;;;;;;5031019;28;20040;-39
2022/02/26 05:20:20;;;;;;;5.28;4.25;;;1.90;99.90;;;;;;5036858;28;20124;-39
2022/02/26 05:22:45;;;;;;;8.25;4.10;;;1.90;99.90;;;;;;5032467;28;20025;-39
2022/02/26 05:25:12;;;;;;;11.50;7.53;;;2.00;99.90;;;;;;5039726;28;20035;-36
2022/02/26 05:27:40;;;;;;;8.95;5.13;;;1.90;99.90;;;;;;5034548;28;20356;-37
2022/02/26 05:30:07;;;;;;;7.75;4.88;;;2.00;99.90;;;;;;5040391;28;20033;-39
2022/02/26 05:32:33;;;;;;;6.43;4.68;;;2.00;99.90;;;;;;5037684;28;20036;-37
2022/02/26 05:34:58;;;;;;;5.78;4.20;;;1.90;99.90;;;;;;5036074;28;20718;-35
2022/02/26 05:37:24;;;;;;;10.75;5.55;;;2.00;99.90;;;;;;5040137;28;20193;-39
2022/02/26 05:39:49;;;;;;;8.95;4.85;;;2.00;99.90;;;;;;5038378;28;20032;-39
2022/02/26 05:42:16;;;;;;;6.07;4.53;;;2.00;99.90;;;;;;5037070;28;20362;-37
2022/02/26 05:44:42;;;;;;;3.85;3.47;;;2.00;99.90;;;;;;5033705;28;20017;-38
2022/02/26 05:47:08;;;;;;;6.30;3.97;;;2.00;99.90;;;;;;5032970;28;20112;-36
2022/02/26 05:49:33;;;;;;;8.48;4.13;;;2.00;99.90;;;;;;5038198;28;20028;-38
2022/02/26 05:51:59;;;;;;;7.30;4.07;;;2.00;99.90;;;;;;5038295;28;20052;-36
2022/02/26 05:54:25;;;;;;;3.60;3.28;;;2.00;99.90;;;;;;5034365;28;20862;-35
2022/02/26 05:56:50;;;;;;;6.32;3.42;;;1.90;99.90;;;;;;5040317;28;20563;-36
2022/02/26 05:59:16;;;;;;;7.50;4.30;;;1.70;99.90;;;;;;5037932;28;20121;-39
2022/02/26 06:01:42;;;;;;;4.30;3.90;;;1.60;99.90;;;;;;5038909;28;20064;-36
2022/02/26 06:04:07;;;;;;;4.72;3.75;;;1.60;99.90;;;;;;5040154;28;20033;-38
2022/02/26 06:06:33;;;;;;;6.22;4.15;;;1.70;99.90;;;;;;5039540;28;20549;-40
2022/02/26 06:08:59;;;;;;;6.60;4.63;;;1.70;99.90;;;;;;5039673;28;20026;-39
2022/02/26 06:11:24;;;;;;;9.85;5.05;;;1.70;99.90;;;;;;5038622;28;20470;-39
2022/02/26 06:13:51;;;;;;;4.57;3.80;;;1.80;99.90;;;;;;5038664;28;20114;-36
2022/02/26 06:16:17;;;;;;;7.53;4.72;;;1.80;99.90;;;;;;5035878;28;20687;-39
2022/02/26 06:18:43;;;;;;;11.88;5.10;;;1.80;99.90;;;;;;5038513;28;20031;-39
2022/02/26 06:21:08;;;;;;;5.32;4.10;;;1.80;99.90;;;;;;5037712;28;20039;-39
2022/02/26 06:23:34;;;;;;;6.53;4.22;;;1.80;99.90;;;;;;5043147;28;20123;-39
2022/02/26 06:26:00;;;;;;;7.78;4.28;;;1.80;99.90;;;;;;5046672;28;20143;-39
2022/02/26 06:28:26;;;;;;;10.32;4.85;;;1.90;99.90;;;;;;5044954;28;20047;-36
2022/02/26 06:30:51;;;;;;;8.75;4.30;;;1.80;99.90;;;;;;5042668;28;20039;-39
2022/02/26 06:33:17;;;;;;;5.97;4.32;;;1.80;99.90;;;;;;5041875;28;20033;-39
2022/02/26 06:35:43;;;;;;;7.35;4.18;;;1.80;99.90;;;;;;5040017;28;20494;-39
2022/02/26 06:38:10;;;;;;;7.60;3.97;;;1.80;99.90;;;;;;5039415;28;20109;-39
2022/02/26 06:40:36;;;;;;;7.13;4.50;;;1.80;99.90;;;;;;5040772;28;20039;-39
2022/02/26 06:43:02;;;;;;;6.03;5.13;;;1.70;99.90;;;;;;5036143;28;20036;-39
2022/02/26 06:45:28;;;;;;;5.55;4.28;;;1.60;99.90;;;;;;5035448;28;20033;-40
2022/02/26 06:47:54;;;;;;;7.28;4.35;;;1.50;99.90;;;;;;5036832;28;20142;-40
2022/02/26 06:50:20;;;;;;;5.68;3.80;;;1.50;99.90;;;;;;5040513;28;20029;-37
2022/02/26 06:52:45;;;;;;;8.40;4.88;;;1.50;99.90;;;;;;5037109;28;20025;-39
2022/02/26 06:55:11;;;;;;;8.88;4.30;;;1.50;99.90;;;;;;5034781;28;20029;-39
2022/02/26 06:57:36;;;;;;;7.53;4.45;;;1.60;99.90;;;;;;5035584;28;20505;-35
2022/02/26 07:00:05;;;;;;;12.70;5.43;;;1.70;99.90;;;;;;5036738;28;20433;-39
2022/02/26 07:02:31;;;;;;;6.80;4.90;;;1.80;99.90;;;;;;5038422;28;20394;-40
2022/02/26 07:04:57;;;;;;;10.40;5.90;;;1.80;99.90;;;;;;5042825;28;20441;-37
2022/02/26 07:07:22;;;;;;;10.38;4.88;;;1.80;99.90;;;;;;5035892;28;20076;-37
2022/02/26 07:09:48;;;;;;;6.20;4.95;;;1.90;99.90;;;;;;5042233;28;20040;-37
2022/02/26 07:12:16;;;;;;;5.78;4.53;;;1.90;99.90;;;;;;5042342;28;20421;-39
2022/02/26 07:14:42;;;;;;;6.78;5.07;;;1.90;99.90;;;;;;5040761;28;20029;-39
2022/02/26 07:17:07;;;;;;;7.63;4.18;;;2.00;99.90;;;;;;5039404;28;20025;-39
2022/02/26 07:19:33;;;;;;;9.93;5.78;;;1.90;99.90;;;;;;5040613;28;20032;-38
2022/02/26 07:21:59;;;;;;;8.18;4.75;;;1.90;99.90;;;;;;5040809;28;20051;-39
2022/02/26 07:24:26;;;;;;;11.85;4.88;;;2.00;99.90;;;;;;5039270;28;20041;-39
2022/02/26 07:26:51;;;;;;;2.05;1.95;;;2.00;99.90;;;;;;5035830;28;20045;-39
2022/02/26 07:29:17;;;;;;;7.25;4.00;;;1.90;99.90;;;;;;5039677;28;20564;-39
2022/02/26 07:31:43;;;;;;;9.15;4.25;;;1.90;99.90;;;;;;5038097;28;20279;-38
2022/02/26 07:34:08;;;;;;;7.70;3.53;;;1.90;99.90;;;;;;5032895;28;20382;-39
2022/02/26 07:36:34;;;;;;;8.05;4.20;;;1.90;99.90;;;;;;5035339;28;20037;-39
2022/02/26 07:39:01;;;;;;;4.28;3.40;;;1.80;99.90;;;;;;5040160;28;20033;-38
2022/02/26 07:41:26;;;;;;;8.18;3.85;;;1.90;99.90;;;;;;5041335;28;20033;-36
2022/02/26 07:43:52;;;;;;;7.65;3.70;;;2.10;99.90;;;;;;5035645;28;20036;-37
2022/02/26 07:46:18;;;;;;;14.57;3.92;;;2.10;99.90;;;;;;5037596;28;20493;-37
2022/02/26 07:48:43;;;;;;;6.18;3.10;;;2.20;99.90;;;;;;5035501;28;20100;-40
2022/02/26 07:51:09;;;;;;;9.57;3.50;;;2.40;99.90;;;;;;5041941;28;20029;-37
2022/02/26 07:53:35;;;;;;;5.85;3.33;;;2.50;99.90;;;;;;5038904;28;20029;-38
2022/02/26 07:56:00;;;;;;;9.45;3.25;;;2.60;99.90;;;;;;5035961;28;20120;-39
2022/02/26 07:58:27;;;;;;;10.43;3.35;;;2.70;99.90;;;;;;5041594;28;20024;-38
2022/02/26 08:00:53;;;;;;;5.60;3.17;;;2.90;99.90;;;;;;5034952;28;20076;-40
2022/02/26 08:03:18;;;;;;;5.28;2.92;;;2.90;99.90;;;;;;5044036;28;20124;-36
2022/02/26 08:05:44;;;;;;;8.60;3.22;;;2.90;99.90;;;;;;5041455;28;20032;-39
2022/02/26 08:08:10;;;;;;;4.20;2.30;;;3.00;99.90;;;;;;5035829;28;21546;-38
2022/02/26 08:10:35;;;;;;;5.93;2.30;;;3.00;99.90;;;;;;5036219;28;20474;-39
2022/02/26 08:13:01;;;;;;;11.32;2.72;;;2.90;99.90;;;;;;5036141;28;21110;-39
2022/02/26 08:15:28;;;;;;;2.92;2.65;;;3.10;99.90;;;;;;5030775;28;20414;-40
2022/02/26 08:17:54;;;;;;;6.20;2.40;;;3.10;99.90;;;;;;5035154;28;20044;-38
2022/02/26 08:20:24;;;;;;;9.88;3.38;;;2.90;99.90;;;;;;5033093;28;20568;-38
2022/02/26 08:22:56;;;;;;;8.65;2.53;;;3.00;99.90;;;;;;5040211;28;20385;-37
2022/02/26 08:25:22;;;;;;;3.25;2.10;;;3.00;99.90;;;;;;5034187;28;20515;-40
2022/02/26 08:27:48;;;;;;;8.90;2.97;;;3.00;99.90;;;;;;5034684;28;20107;-39
2022/02/26 08:30:17;;;;;;;5.30;2.63;;;3.00;99.90;;;;;;5042296;28;20037;-37
2022/02/26 08:32:43;;;;;;;4.00;1.88;;;2.90;99.90;;;;;;5038807;28;20103;-39
2022/02/26 08:35:10;;;;;;;11.55;2.38;;;3.00;99.90;;;;;;5032569;28;20043;-38
2022/02/26 08:37:37;;;;;;;4.15;1.58;;;3.30;99.90;;;;;;5036176;28;20563;-39
2022/02/26 08:40:04;;;;;;;3.75;1.80;;;3.50;99.90;;;;;;5036710;28;20021;-39
2022/02/26 08:42:30;;;;;;;4.85;2.58;;;3.40;99.90;;;;;;5039832;28;20037;-38
2022/02/26 08:44:56;;;;;;;3.45;2.13;;;3.30;99.90;;;;;;5038416;28;20033;-39
2022/02/26 08:47:22;;;;;;;9.07;2.65;;;3.40;99.90;;;;;;5038662;28;20115;-37
2022/02/26 08:49:48;;;;;;;7.80;2.97;;;3.50;99.90;;;;;;5037170;28;20032;-35
2022/02/26 08:52:14;;;;;;;5.40;2.08;;;3.40;99.90;;;;;;5038740;28;20507;-36
2022/02/26 08:54:40;;;;;;;4.88;2.45;;;3.50;99.90;;;;;;5034486;28;20110;-37
2022/02/26 08:57:06;;;;;;;3.65;1.80;;;3.50;99.90;;;;;;5034483;28;20486;-39
2022/02/26 08:59:31;;;;;;;3.17;2.15;;;3.50;99.90;;;;;;5030315;28;20032;-40
2022/02/26 09:02:00;;;;;;;3.03;1.73;;;3.60;99.90;;;;;;5032936;28;20789;-39
2022/02/26 09:04:26;;;;;;;4.25;1.85;;;3.80;99.90;;;;;;5038626;28;20036;-38
2022/02/26 09:06:52;;;;;;;3.78;1.40;;;3.90;99.40;;;;;;5032125;28;20486;-38
2022/02/26 09:09:18;;;;;;;3.80;1.60;;;3.80;98.60;;;;;;5037075;28;20036;-36
2022/02/26 09:11:44;;;;;;;8.07;1.83;;;3.80;98.10;;;;;;5032741;28;20025;-39
2022/02/26 09:14:11;;;;;;;4.13;1.55;;;3.70;97.80;;;;;;5032096;28;20390;-37
2022/02/26 09:16:37;;;;;;;2.47;1.42;;;3.70;99.50;;;;;;5037940;28;20025;-37
2022/02/26 09:19:03;;;;;;;2.55;1.23;;;3.70;99.60;;;;;;5033367;28;20039;-36
2022/02/26 09:21:29;;;;;;;4.05;1.55;;;3.80;99.40;;;;;;5045125;28;20646;-40
2022/02/26 09:23:55;;;;;;;5.57;2.00;;;3.80;99.90;;;;;;5037896;28;20033;-39
2022/02/26 09:26:21;;;;;;;4.40;1.50;;;3.80;95.70;;;;;;5034637;28;20482;-39
2022/02/26 09:28:47;;;;;;;2.08;1.23;;;3.80;99.90;;;;;;5035388;28;20464;-39
2022/02/26 09:31:13;;;;;;;2.92;1.23;;;3.80;98.50;;;;;;5030429;28;20036;-39
2022/02/26 09:33:40;;;;;;;3.38;1.90;;;3.80;99.30;;;;;;5034266;28;20025;-38
2022/02/26 09:36:07;;;;;;;5.82;1.83;;;3.70;96.80;;;;;;5038114;28;20029;-37
2022/02/26 09:38:33;;;;;;;4.63;1.15;;;3.70;96.80;;;;;;5033737;28;20033;-38
2022/02/26 09:41:02;;;;;;;3.20;1.08;;;3.70;96.80;;;;;;5039661;28;20021;-39
2022/02/26 09:43:29;;;;;;;4.90;1.40;;;3.80;94.60;;;;;;5033121;28;20048;-39
2022/02/26 09:45:56;;;;;;;2.33;1.27;;;3.80;96.80;;;;;;5033897;28;20672;-39
2022/02/26 09:48:22;;;;;;;4.68;1.38;;;3.80;94.20;;;;;;5034551;28;20033;-37
2022/02/26 09:50:49;;;;;;;1.25;0.90;;;3.60;91.60;;;;;;5040402;28;20033;-36
2022/02/26 09:53:16;;;;;;;5.22;1.40;;;3.70;96.00;;;;;;5033902;28;20816;-39
2022/02/26 09:55:43;;;;;;;4.70;1.58;;;4.00;96.20;;;;;;5034751;28;20055;-36
2022/02/26 09:58:10;;;;;;;5.50;1.10;;;4.00;92.60;;;;;;5031279;28;20040;-37
2022/02/26 10:00:36;;;;;;;2.70;1.25;;;4.00;92.70;;;;;;5034349;28;20033;-38
2022/02/26 10:03:01;;;;;;;1.65;1.50;;;4.00;90.00;;;;;;5036077;28;20039;-35
2022/02/26 10:05:28;;;;;;;2.10;1.20;;;3.90;93.00;;;;;;5032776;28;20972;-36
2022/02/26 10:07:54;;;;;;;4.45;2.00;;;4.10;93.20;;;;;;5053486;28;20037;-39
2022/02/26 10:10:23;;;;;;;3.25;1.15;;;4.10;92.70;;;;;;5036086;28;20432;-38
2022/02/26 10:13:00;;;;;;;4.68;1.20;;;4.20;91.70;;;;;;5034515;28;20489;-38
2022/02/26 10:15:39;;;;;;;1.52;1.40;;;4.10;91.10;;;;;;5035495;28;20135;-39
2022/02/26 10:18:11;;;;;;;5.07;1.58;;;4.10;92.40;;;;;;5038350;28;20417;-39
2022/02/26 10:20:55;;;;;;;3.33;1.45;;;4.20;87.00;;;;;;5039374;28;20104;-39
2022/02/26 10:23:22;;;;;;;2.88;1.27;;;3.90;84.70;;;;;;5038993;28;20552;-37
2022/02/26 10:25:48;;;;;;;1.77;1.17;;;3.80;90.00;;;;;;5030156;28;20033;-39
2022/02/26 10:28:15;;;;;;;3.53;1.40;;;3.80;91.60;;;;;;5035440;28;20084;-36
2022/02/26 10:30:46;;;;;;;4.97;1.23;;;3.90;90.30;;;;;;5036365;28;20040;-36
2022/02/26 10:33:23;;;;;;;2.70;1.40;;;3.90;88.70;;;;;;5038542;28;20556;-39
2022/02/26 10:36:09;;;;;;;3.15;1.50;;;3.90;88.80;;;;;;5034425;28;20549;-38
2022/02/26 10:38:35;;;;;;;3.50;1.40;;;3.80;83.10;;;;;;5031839;28;20401;-35
2022/02/26 10:41:09;;;;;;;2.85;1.40;;;3.90;83.20;;;;;;5032466;28;20056;-37
2022/02/26 10:43:40;;;;;;;1.90;1.27;;;3.90;90.80;;;;;;5037491;28;20044;-36
2022/02/26 10:46:20;;;;;;;9.00;2.03;;;4.10;91.40;;;;;;5035882;28;20029;-38
2022/02/26 10:48:46;;;;;;;5.45;1.52;;;4.40;83.50;;;;;;5035999;28;20028;-38
2022/02/26 10:51:27;;;;;;;4.70;1.30;;;4.60;75.60;;;;;;5039422;28;20458;-36
2022/02/26 10:53:53;;;;;;;3.47;1.48;;;4.60;89.50;;;;;;5039169;28;20608;-36
2022/02/26 10:56:28;;;;;;;6.35;1.40;;;4.50;89.00;;;;;;5039077;28;20033;-38
2022/02/26 10:58:53;;;;;;;1.80;1.70;;;4.60;90.30;;;;;;5042657;28;20037;-39
2022/02/26 11:01:19;;;;;;;3.45;1.15;;;4.90;91.20;;;;;;5040143;28;20060;-35
2022/02/26 11:03:44;;;;;;;3.75;1.23;;;5.10;78.00;;;;;;5034372;28;20775;-39
2022/02/26 11:06:12;;;;;;;1.67;1.08;;;5.00;81.10;;;;;;5039890;28;20385;-37
2022/02/26 11:08:40;;;;;;;3.15;1.52;;;5.00;69.80;;;;;;5043506;28;20029;-39
2022/02/26 11:11:07;;;;;;;1.70;1.10;;;4.70;70.80;;;;;;5041229;28;20025;-36
2022/02/26 11:13:35;;;;;;;2.63;1.27;;;4.50;84.50;;;;;;5034474;28;20041;-36
2022/02/26 11:16:01;;;;;;;2.08;1.02;;;4.60;81.20;;;;;;5033223;28;20049;-36
2022/02/26 11:18:39;;;;;;;7.05;1.38;;;4.60;74.80;;;;;;5038041;28;20091;-38
2022/02/26 11:21:08;;;;;;;3.13;2.03;;;4.80;77.80;;;;;;5036914;28;20086;-38
2022/02/26 11:23:33;;;;;;;;;;;5.10;75.00;;;;;;5040934;28;20040;-39
2022/02/26 11:25:59;;;;;;;1.00;0.95;;;4.80;68.50;;;;;;5035185;28;20381;-39
2022/02/26 11:28:27;;;;;;;3.28;1.20;;;4.60;68.90;;;;;;5037057;28;20405;-38
2022/02/26 11:30:58;;;;;;;2.33;0.95;;;4.40;67.70;;;;;;5031200;28;20079;-36
2022/02/26 11:33:24;;;;;;;3.22;1.10;;;4.40;71.30;;;;;;5043939;28;20052;-39
2022/02/26 11:36:01;;;;;;;6.30;1.65;;;4.40;79.00;;;;;;5036235;28;20029;-39
2022/02/26 11:38:28;;;;;;;1.58;1.20;;;4.30;67.80;;;;;;5029954;28;20028;-37
2022/02/26 11:41:23;;;;;;;2.05;1.38;;;4.20;67.20;;;;;;5037635;28;20029;-39
2022/02/26 11:43:51;;;;;;;3.03;1.40;;;4.20;67.10;;;;;;5039433;28;20021;-38
2022/02/26 11:46:36;;;;;;;4.07;1.17;;;4.30;68.70;;;;;;5036690;28;20043;-38
2022/02/26 11:49:28;;;;;;;2.78;1.33;;;4.40;74.50;;;;;;5031722;28;20600;-39
2022/02/26 11:51:54;;;;;;;6.65;1.23;;;4.40;66.80;;;;;;5041028;28;20533;-37
2022/02/26 11:54:23;;;;;;;3.35;1.30;;;4.50;64.30;;;;;;5039502;28;22399;-39
2022/02/26 11:56:57;;;;;;;3.00;1.70;;;4.50;67.50;;;;;;5041776;28;20189;-38
2022/02/26 11:59:42;;;;;;;2.47;0.95;;;4.30;70.70;;;;;;5031590;28;20106;-39
2022/02/26 12:02:08;;;;;;;3.90;1.40;;;4.30;78.50;;;;;;5037755;28;20288;-36
2022/02/26 12:04:56;;;;;;;6.97;2.13;;;4.20;75.50;;;;;;5038670;28;20041;-38
2022/02/26 12:07:31;;;;;;;2.65;1.33;;;4.30;81.80;;;;;;5035648;28;20033;-36
2022/02/26 12:10:21;;;;;;;3.95;1.42;;;4.40;71.10;;;;;;5036116;28;20102;-39
2022/02/26 12:12:49;;;;;;;2.67;1.40;;;4.30;78.40;;;;;;5034023;28;20087;-39
2022/02/26 12:15:20;;;;;;;6.13;1.75;;;4.20;81.80;;;;;;5032662;28;20047;-39
2022/02/26 12:17:46;;;;;;;3.13;1.33;;;4.10;79.90;;;;;;5033691;28;20028;-39
2022/02/26 12:20:18;;;;;;;2.22;1.38;;;4.10;90.00;;;;;;5034746;28;20122;-39
2022/02/26 12:22:51;;;;;;;3.45;1.65;;;3.90;89.20;;;;;;5032293;28;20025;-39
2022/02/26 12:25:17;;;;;;;1.70;1.20;;;4.00;97.40;;;;;;5037081;28;20035;-39
2022/02/26 12:27:55;;;;;;;3.13;1.83;;;3.80;96.50;;;;;;5035722;28;20049;-40
2022/02/26 12:30:20;;;;;;;7.97;2.15;;;3.70;97.30;;;;;;5056541;28;20498;-38
2022/02/26 12:32:51;;;;;;;1.73;1.38;;;3.70;97.30;;;;;;5036864;28;20027;-39
2022/02/26 12:35:17;;;;;;;3.25;1.60;;;3.70;99.80;;;;;;5040411;28;20037;-39
2022/02/26 12:37:45;;;;;;;1.50;1.40;;;3.70;99.40;;;;;;5038105;28;20057;-39
2022/02/26 12:40:27;;;;;;;4.57;1.57;;;3.60;99.90;;;;;;5034632;28;20076;-40
2022/02/26 12:43:00;;;;;;;1.50;1.40;;;3.60;99.90;;;;;;5040037;28;20064;-39
2022/02/26 12:45:26;;;;;;;3.97;1.63;;;3.50;99.90;;;;;;5036786;28;20044;-40
2022/02/26 12:47:52;;;;;;;5.15;1.70;;;3.50;98.00;;;;;;5033103;28;20083;-39
2022/02/26 12:50:18;;;;;;;2.50;1.65;;;3.50;98.40;;;;;;5039020;28;20124;-39
2022/02/26 12:52:45;;;;;;;2.30;1.30;;;3.60;98.40;;;;;;5032058;28;20028;-40
2022/02/26 12:55:16;;;;;;;2.70;1.50;;;3.60;98.20;;;;;;5038811;28;21462;-39
2022/02/26 12:57:44;;;;;;;1.73;1.45;;;3.70;97.80;;;;;;5034390;28;20453;-38